sensor_id;sensor_type;location;lat;lon;timestamp;P1;durP1;ratioP1;P2;durP2;ratioP2
75496;SDS011;64074;47.540;19.072;2024-01-06T00:00:37;37.22;;;20.42;;
75496;SDS011;64074;47.540;19.072;2024-01-06T00:03:47;38.03;;;19.92;;
75496;SDS011;64074;47.540;19.072;2024-01-06T00:07:03;41.45;;;18.50;;
75496;SDS011;64074;47.540;19.072;2024-01-06T00:10:12;39.80;;;19.43;;
75496;SDS011;64074;47.540;19.072;2024-01-06T00:13:24;39.95;;;20.30;;
75496;SDS011;64074;47.540;19.072;2024-01-06T00:16:35;39.97;;;20.52;;
75496;SDS011;64074;47.540;19.072;2024-01-06T00:19:51;39.50;;;19.73;;
75496;SDS011;64074;47.540;19.072;2024-01-06T00:23:04;39.45;;;20.20;;
75496;SDS011;64074;47.540;19.072;2024-01-06T00:26:15;39.33;;;20.23;;
75496;SDS011;64074;47.540;19.072;2024-01-06T00:29:35;37.08;;;19.85;;
75496;SDS011;64074;47.540;19.072;2024-01-06T00:32:45;39.25;;;19.75;;
75496;SDS011;64074;47.540;19.072;2024-01-06T00:35:56;38.70;;;20.25;;
75496;SDS011;64074;47.540;19.072;2024-01-06T00:39:02;38.55;;;19.80;;
75496;SDS011;64074;47.540;19.072;2024-01-06T00:42:07;41.53;;;20.23;;
75496;SDS011;64074;47.540;19.072;2024-01-06T00:45:17;40.95;;;20.83;;
75496;SDS011;64074;47.540;19.072;2024-01-06T00:48:34;38.83;;;20.52;;
75496;SDS011;64074;47.540;19.072;2024-01-06T00:52:00;38.22;;;20.67;;
75496;SDS011;64074;47.540;19.072;2024-01-06T00:55:17;40.58;;;20.90;;
75496;SDS011;64074;47.540;19.072;2024-01-06T00:58:28;40.47;;;20.97;;
75496;SDS011;64074;47.540;19.072;2024-01-06T01:01:58;42.53;;;21.33;;
75496;SDS011;64074;47.540;19.072;2024-01-06T01:05:26;40.38;;;20.77;;
75496;SDS011;64074;47.540;19.072;2024-01-06T01:08:48;40.25;;;20.27;;
75496;SDS011;64074;47.540;19.072;2024-01-06T01:12:09;39.22;;;20.55;;
75496;SDS011;64074;47.540;19.072;2024-01-06T01:15:34;41.73;;;20.90;;
75496;SDS011;64074;47.540;19.072;2024-01-06T01:19:00;39.17;;;20.27;;
75496;SDS011;64074;47.540;19.072;2024-01-06T01:22:19;40.92;;;20.50;;
75496;SDS011;64074;47.540;19.072;2024-01-06T01:25:40;39.90;;;21.15;;
75496;SDS011;64074;47.540;19.072;2024-01-06T01:29:01;42.28;;;20.55;;
75496;SDS011;64074;47.540;19.072;2024-01-06T01:32:23;41.83;;;20.27;;
75496;SDS011;64074;47.540;19.072;2024-01-06T01:35:47;42.13;;;20.17;;
75496;SDS011;64074;47.540;19.072;2024-01-06T01:39:11;40.05;;;21.40;;
75496;SDS011;64074;47.540;19.072;2024-01-06T01:42:28;44.15;;;21.13;;
75496;SDS011;64074;47.540;19.072;2024-01-06T01:45:57;44.17;;;20.48;;
75496;SDS011;64074;47.540;19.072;2024-01-06T01:49:11;40.57;;;20.57;;
75496;SDS011;64074;47.540;19.072;2024-01-06T01:52:39;38.83;;;19.83;;
75496;SDS011;64074;47.540;19.072;2024-01-06T01:55:56;43.22;;;20.52;;
75496;SDS011;64074;47.540;19.072;2024-01-06T01:59:17;41.38;;;19.13;;
75496;SDS011;64074;47.540;19.072;2024-01-06T02:02:38;39.53;;;19.92;;
75496;SDS011;64074;47.540;19.072;2024-01-06T02:05:59;44.93;;;21.47;;
75496;SDS011;64074;47.540;19.072;2024-01-06T02:09:19;38.80;;;19.58;;
75496;SDS011;64074;47.540;19.072;2024-01-06T02:12:43;40.17;;;19.90;;
75496;SDS011;64074;47.540;19.072;2024-01-06T02:16:05;41.25;;;19.30;;
75496;SDS011;64074;47.540;19.072;2024-01-06T02:19:19;38.58;;;19.63;;
75496;SDS011;64074;47.540;19.072;2024-01-06T02:22:29;39.73;;;20.30;;
75496;SDS011;64074;47.540;19.072;2024-01-06T02:25:44;40.47;;;19.65;;
75496;SDS011;64074;47.540;19.072;2024-01-06T02:28:59;38.85;;;20.13;;
75496;SDS011;64074;47.540;19.072;2024-01-06T02:32:16;37.50;;;19.70;;
75496;SDS011;64074;47.540;19.072;2024-01-06T02:35:38;37.95;;;18.88;;
75496;SDS011;64074;47.540;19.072;2024-01-06T02:38:54;40.10;;;19.00;;
75496;SDS011;64074;47.540;19.072;2024-01-06T02:42:22;38.63;;;20.27;;
75496;SDS011;64074;47.540;19.072;2024-01-06T02:45:27;40.90;;;20.23;;
75496;SDS011;64074;47.540;19.072;2024-01-06T02:48:32;38.80;;;19.85;;
75496;SDS011;64074;47.540;19.072;2024-01-06T02:51:39;40.78;;;20.05;;
75496;SDS011;64074;47.540;19.072;2024-01-06T02:54:49;39.70;;;20.20;;
75496;SDS011;64074;47.540;19.072;2024-01-06T02:57:56;39.67;;;19.60;;
75496;SDS011;64074;47.540;19.072;2024-01-06T03:01:07;37.72;;;19.77;;
75496;SDS011;64074;47.540;19.072;2024-01-06T03:04:22;38.95;;;19.98;;
75496;SDS011;64074;47.540;19.072;2024-01-06T03:07:37;40.50;;;19.90;;
75496;SDS011;64074;47.540;19.072;2024-01-06T03:10:47;37.40;;;19.07;;
75496;SDS011;64074;47.540;19.072;2024-01-06T03:14:24;41.22;;;19.90;;
75496;SDS011;64074;47.540;19.072;2024-01-06T03:17:47;37.53;;;19.13;;
75496;SDS011;64074;47.540;19.072;2024-01-06T03:21:18;37.42;;;18.55;;
75496;SDS011;64074;47.540;19.072;2024-01-06T03:24:34;36.33;;;19.05;;
75496;SDS011;64074;47.540;19.072;2024-01-06T03:27:52;38.63;;;20.20;;
75496;SDS011;64074;47.540;19.072;2024-01-06T03:31:19;34.90;;;18.10;;
75496;SDS011;64074;47.540;19.072;2024-01-06T03:34:37;36.17;;;18.88;;
75496;SDS011;64074;47.540;19.072;2024-01-06T03:37:58;35.85;;;18.35;;
75496;SDS011;64074;47.540;19.072;2024-01-06T03:41:22;34.65;;;18.38;;
75496;SDS011;64074;47.540;19.072;2024-01-06T03:44:42;34.90;;;18.40;;
75496;SDS011;64074;47.540;19.072;2024-01-06T03:48:06;36.03;;;18.42;;
75496;SDS011;64074;47.540;19.072;2024-01-06T03:51:26;37.15;;;18.80;;
75496;SDS011;64074;47.540;19.072;2024-01-06T03:54:51;32.53;;;17.55;;
75496;SDS011;64074;47.540;19.072;2024-01-06T03:58:11;34.60;;;18.40;;
75496;SDS011;64074;47.540;19.072;2024-01-06T04:01:26;36.60;;;18.40;;
75496;SDS011;64074;47.540;19.072;2024-01-06T04:04:32;33.72;;;17.55;;
75496;SDS011;64074;47.540;19.072;2024-01-06T04:07:35;36.70;;;18.00;;
75496;SDS011;64074;47.540;19.072;2024-01-06T04:10:44;31.40;;;17.45;;
75496;SDS011;64074;47.540;19.072;2024-01-06T04:14:14;33.45;;;17.42;;
75496;SDS011;64074;47.540;19.072;2024-01-06T04:17:35;34.73;;;17.13;;
75496;SDS011;64074;47.540;19.072;2024-01-06T04:24:24;34.60;;;17.58;;
75496;SDS011;64074;47.540;19.072;2024-01-06T04:27:35;33.80;;;17.30;;
75496;SDS011;64074;47.540;19.072;2024-01-06T04:34:31;35.10;;;17.30;;
75496;SDS011;64074;47.540;19.072;2024-01-06T04:37:38;32.05;;;17.25;;
75496;SDS011;64074;47.540;19.072;2024-01-06T04:40:46;35.35;;;19.17;;
75496;SDS011;64074;47.540;19.072;2024-01-06T04:43:59;32.05;;;17.75;;
75496;SDS011;64074;47.540;19.072;2024-01-06T04:47:11;34.83;;;18.45;;
75496;SDS011;64074;47.540;19.072;2024-01-06T04:50:31;33.90;;;17.67;;
75496;SDS011;64074;47.540;19.072;2024-01-06T04:54:04;36.08;;;18.38;;
75496;SDS011;64074;47.540;19.072;2024-01-06T04:57:24;32.45;;;17.38;;
75496;SDS011;64074;47.540;19.072;2024-01-06T05:00:42;31.58;;;17.23;;
75496;SDS011;64074;47.540;19.072;2024-01-06T05:03:52;34.50;;;18.45;;
75496;SDS011;64074;47.540;19.072;2024-01-06T05:07:01;36.97;;;18.23;;
75496;SDS011;64074;47.540;19.072;2024-01-06T05:10:08;34.80;;;18.13;;
75496;SDS011;64074;47.540;19.072;2024-01-06T05:13:14;33.65;;;17.98;;
75496;SDS011;64074;47.540;19.072;2024-01-06T05:16:26;33.38;;;17.88;;
75496;SDS011;64074;47.540;19.072;2024-01-06T05:19:37;33.83;;;18.17;;
75496;SDS011;64074;47.540;19.072;2024-01-06T05:22:50;34.80;;;17.73;;
75496;SDS011;64074;47.540;19.072;2024-01-06T05:26:07;31.48;;;17.55;;
75496;SDS011;64074;47.540;19.072;2024-01-06T05:29:26;34.13;;;18.33;;
75496;SDS011;64074;47.540;19.072;2024-01-06T05:32:29;33.65;;;17.55;;
75496;SDS011;64074;47.540;19.072;2024-01-06T05:35:39;37.75;;;18.98;;
75496;SDS011;64074;47.540;19.072;2024-01-06T05:38:58;33.73;;;17.73;;
75496;SDS011;64074;47.540;19.072;2024-01-06T05:42:13;34.22;;;17.48;;
75496;SDS011;64074;47.540;19.072;2024-01-06T05:45:37;34.70;;;18.02;;
75496;SDS011;64074;47.540;19.072;2024-01-06T05:48:50;33.25;;;17.52;;
75496;SDS011;64074;47.540;19.072;2024-01-06T05:52:15;32.97;;;16.88;;
75496;SDS011;64074;47.540;19.072;2024-01-06T05:55:48;34.07;;;16.73;;
75496;SDS011;64074;47.540;19.072;2024-01-06T05:59:14;34.42;;;17.58;;
75496;SDS011;64074;47.540;19.072;2024-01-06T06:02:25;32.20;;;16.63;;
75496;SDS011;64074;47.540;19.072;2024-01-06T06:05:31;32.03;;;17.65;;
75496;SDS011;64074;47.540;19.072;2024-01-06T06:08:36;32.58;;;16.98;;
75496;SDS011;64074;47.540;19.072;2024-01-06T06:11:46;32.50;;;17.53;;
75496;SDS011;64074;47.540;19.072;2024-01-06T06:14:59;32.30;;;17.48;;
75496;SDS011;64074;47.540;19.072;2024-01-06T06:18:19;34.70;;;17.58;;
75496;SDS011;64074;47.540;19.072;2024-01-06T06:21:45;31.58;;;17.63;;
75496;SDS011;64074;47.540;19.072;2024-01-06T06:24:49;33.20;;;17.08;;
75496;SDS011;64074;47.540;19.072;2024-01-06T06:27:56;29.93;;;16.57;;
75496;SDS011;64074;47.540;19.072;2024-01-06T06:31:06;29.13;;;16.40;;
75496;SDS011;64074;47.540;19.072;2024-01-06T06:34:20;30.35;;;17.33;;
75496;SDS011;64074;47.540;19.072;2024-01-06T06:37:28;33.72;;;17.20;;
75496;SDS011;64074;47.540;19.072;2024-01-06T06:40:37;33.28;;;18.48;;
75496;SDS011;64074;47.540;19.072;2024-01-06T06:43:58;31.10;;;16.47;;
75496;SDS011;64074;47.540;19.072;2024-01-06T06:47:12;30.55;;;16.35;;
75496;SDS011;64074;47.540;19.072;2024-01-06T06:50:24;35.00;;;16.70;;
75496;SDS011;64074;47.540;19.072;2024-01-06T06:53:28;32.47;;;16.20;;
75496;SDS011;64074;47.540;19.072;2024-01-06T06:56:35;29.83;;;16.55;;
75496;SDS011;64074;47.540;19.072;2024-01-06T06:59:45;31.03;;;16.23;;
75496;SDS011;64074;47.540;19.072;2024-01-06T07:02:58;30.60;;;15.75;;
75496;SDS011;64074;47.540;19.072;2024-01-06T07:06:08;31.58;;;16.02;;
75496;SDS011;64074;47.540;19.072;2024-01-06T07:09:22;28.80;;;15.48;;
75496;SDS011;64074;47.540;19.072;2024-01-06T07:12:35;28.52;;;15.45;;
75496;SDS011;64074;47.540;19.072;2024-01-06T07:15:57;28.93;;;14.90;;
75496;SDS011;64074;47.540;19.072;2024-01-06T07:19:27;27.08;;;14.63;;
75496;SDS011;64074;47.540;19.072;2024-01-06T07:22:44;31.95;;;15.45;;
75496;SDS011;64074;47.540;19.072;2024-01-06T07:25:50;29.80;;;15.13;;
75496;SDS011;64074;47.540;19.072;2024-01-06T07:28:54;30.38;;;16.42;;
75496;SDS011;64074;47.540;19.072;2024-01-06T07:31:57;30.33;;;15.53;;
75496;SDS011;64074;47.540;19.072;2024-01-06T07:35:04;30.92;;;16.15;;
75496;SDS011;64074;47.540;19.072;2024-01-06T07:38:14;30.55;;;16.00;;
75496;SDS011;64074;47.540;19.072;2024-01-06T07:41:23;26.83;;;14.48;;
75496;SDS011;64074;47.540;19.072;2024-01-06T07:44:44;27.48;;;14.68;;
75496;SDS011;64074;47.540;19.072;2024-01-06T07:47:53;26.70;;;14.87;;
75496;SDS011;64074;47.540;19.072;2024-01-06T07:51:04;28.30;;;14.75;;
75496;SDS011;64074;47.540;19.072;2024-01-06T07:54:42;28.23;;;14.65;;
75496;SDS011;64074;47.540;19.072;2024-01-06T07:57:59;28.85;;;14.88;;
75496;SDS011;64074;47.540;19.072;2024-01-06T08:01:29;31.25;;;15.18;;
75496;SDS011;64074;47.540;19.072;2024-01-06T08:04:47;27.93;;;14.70;;
75496;SDS011;64074;47.540;19.072;2024-01-06T08:08:12;28.90;;;14.15;;
75496;SDS011;64074;47.540;19.072;2024-01-06T08:11:33;27.50;;;14.00;;
75496;SDS011;64074;47.540;19.072;2024-01-06T08:14:52;25.98;;;14.73;;
75496;SDS011;64074;47.540;19.072;2024-01-06T08:18:06;27.58;;;14.18;;
75496;SDS011;64074;47.540;19.072;2024-01-06T08:21:13;36.60;;;16.00;;
75496;SDS011;64074;47.540;19.072;2024-01-06T08:24:17;28.65;;;14.27;;
75496;SDS011;64074;47.540;19.072;2024-01-06T08:27:28;26.67;;;14.13;;
75496;SDS011;64074;47.540;19.072;2024-01-06T08:30:56;31.77;;;14.73;;
75496;SDS011;64074;47.540;19.072;2024-01-06T08:34:13;27.98;;;13.55;;
75496;SDS011;64074;47.540;19.072;2024-01-06T08:37:45;24.93;;;12.60;;
75496;SDS011;64074;47.540;19.072;2024-01-06T08:41:06;23.70;;;13.35;;
75496;SDS011;64074;47.540;19.072;2024-01-06T08:44:26;24.65;;;13.25;;
75496;SDS011;64074;47.540;19.072;2024-01-06T08:47:42;26.63;;;13.13;;
75496;SDS011;64074;47.540;19.072;2024-01-06T08:51:11;27.10;;;13.07;;
75496;SDS011;64074;47.540;19.072;2024-01-06T08:54:34;26.43;;;13.87;;
75496;SDS011;64074;47.540;19.072;2024-01-06T08:57:55;24.42;;;12.35;;
75496;SDS011;64074;47.540;19.072;2024-01-06T09:01:16;25.40;;;12.73;;
75496;SDS011;64074;47.540;19.072;2024-01-06T09:04:39;29.83;;;13.73;;
75496;SDS011;64074;47.540;19.072;2024-01-06T09:07:57;24.60;;;12.30;;
75496;SDS011;64074;47.540;19.072;2024-01-06T09:11:07;22.93;;;12.47;;
75496;SDS011;64074;47.540;19.072;2024-01-06T09:14:36;27.38;;;13.60;;
75496;SDS011;64074;47.540;19.072;2024-01-06T09:18:06;23.02;;;12.68;;
75496;SDS011;64074;47.540;19.072;2024-01-06T09:21:30;23.60;;;11.85;;
75496;SDS011;64074;47.540;19.072;2024-01-06T09:24:51;22.30;;;12.70;;
75496;SDS011;64074;47.540;19.072;2024-01-06T09:28:15;23.50;;;12.17;;
75496;SDS011;64074;47.540;19.072;2024-01-06T09:31:35;21.73;;;11.60;;
75496;SDS011;64074;47.540;19.072;2024-01-06T09:34:50;23.27;;;12.20;;
75496;SDS011;64074;47.540;19.072;2024-01-06T09:38:01;23.17;;;11.75;;
75496;SDS011;64074;47.540;19.072;2024-01-06T09:41:40;26.13;;;12.80;;
75496;SDS011;64074;47.540;19.072;2024-01-06T09:45:07;23.83;;;13.17;;
75496;SDS011;64074;47.540;19.072;2024-01-06T09:48:30;22.15;;;11.70;;
75496;SDS011;64074;47.540;19.072;2024-01-06T09:51:53;25.95;;;12.52;;
75496;SDS011;64074;47.540;19.072;2024-01-06T09:55:11;25.30;;;14.15;;
75496;SDS011;64074;47.540;19.072;2024-01-06T09:58:34;23.70;;;13.43;;
75496;SDS011;64074;47.540;19.072;2024-01-06T10:01:47;23.97;;;12.60;;
75496;SDS011;64074;47.540;19.072;2024-01-06T10:05:19;22.52;;;12.15;;
75496;SDS011;64074;47.540;19.072;2024-01-06T10:08:49;22.10;;;12.27;;
75496;SDS011;64074;47.540;19.072;2024-01-06T10:12:06;24.17;;;13.63;;
75496;SDS011;64074;47.540;19.072;2024-01-06T10:15:27;23.83;;;12.70;;
75496;SDS011;64074;47.540;19.072;2024-01-06T10:18:52;23.10;;;11.63;;
75496;SDS011;64074;47.540;19.072;2024-01-06T10:22:09;23.05;;;12.07;;
75496;SDS011;64074;47.540;19.072;2024-01-06T10:25:21;23.20;;;12.63;;
75496;SDS011;64074;47.540;19.072;2024-01-06T10:28:52;22.48;;;12.50;;
75496;SDS011;64074;47.540;19.072;2024-01-06T10:32:15;21.60;;;12.73;;
75496;SDS011;64074;47.540;19.072;2024-01-06T10:35:27;23.87;;;11.73;;
75496;SDS011;64074;47.540;19.072;2024-01-06T10:39:02;22.42;;;12.18;;
75496;SDS011;64074;47.540;19.072;2024-01-06T10:42:17;21.30;;;12.10;;
75496;SDS011;64074;47.540;19.072;2024-01-06T10:45:43;25.67;;;13.27;;
75496;SDS011;64074;47.540;19.072;2024-01-06T10:49:07;23.77;;;13.55;;
75496;SDS011;64074;47.540;19.072;2024-01-06T10:52:22;24.17;;;13.50;;
75496;SDS011;64074;47.540;19.072;2024-01-06T10:55:49;23.02;;;12.98;;
75496;SDS011;64074;47.540;19.072;2024-01-06T10:59:11;23.02;;;12.88;;
75496;SDS011;64074;47.540;19.072;2024-01-06T11:02:41;26.05;;;14.75;;
75496;SDS011;64074;47.540;19.072;2024-01-06T11:05:55;24.52;;;12.75;;
75496;SDS011;64074;47.540;19.072;2024-01-06T11:09:13;24.20;;;12.37;;
75496;SDS011;64074;47.540;19.072;2024-01-06T11:12:25;22.67;;;13.02;;
75496;SDS011;64074;47.540;19.072;2024-01-06T11:15:42;20.70;;;11.48;;
75496;SDS011;64074;47.540;19.072;2024-01-06T11:18:54;22.38;;;12.05;;
75496;SDS011;64074;47.540;19.072;2024-01-06T11:25:37;24.27;;;12.57;;
75496;SDS011;64074;47.540;19.072;2024-01-06T11:28:50;24.65;;;12.30;;
75496;SDS011;64074;47.540;19.072;2024-01-06T11:35:36;22.55;;;12.60;;
75496;SDS011;64074;47.540;19.072;2024-01-06T11:38:52;22.27;;;12.02;;
75496;SDS011;64074;47.540;19.072;2024-01-06T11:42:10;22.30;;;11.87;;
75496;SDS011;64074;47.540;19.072;2024-01-06T11:45:35;23.00;;;12.35;;
75496;SDS011;64074;47.540;19.072;2024-01-06T11:48:45;24.48;;;12.85;;
75496;SDS011;64074;47.540;19.072;2024-01-06T11:52:21;23.88;;;12.45;;
75496;SDS011;64074;47.540;19.072;2024-01-06T11:55:42;26.73;;;13.85;;
75496;SDS011;64074;47.540;19.072;2024-01-06T11:59:05;23.57;;;12.60;;
75496;SDS011;64074;47.540;19.072;2024-01-06T12:02:22;26.48;;;13.70;;
75496;SDS011;64074;47.540;19.072;2024-01-06T12:05:32;26.52;;;14.65;;
75496;SDS011;64074;47.540;19.072;2024-01-06T12:08:48;25.65;;;13.73;;
75496;SDS011;64074;47.540;19.072;2024-01-06T12:12:33;28.80;;;13.70;;
75496;SDS011;64074;47.540;19.072;2024-01-06T12:15:54;24.00;;;13.77;;
75496;SDS011;64074;47.540;19.072;2024-01-06T12:19:09;27.00;;;14.73;;
75496;SDS011;64074;47.540;19.072;2024-01-06T12:22:30;27.42;;;13.82;;
75496;SDS011;64074;47.540;19.072;2024-01-06T12:25:52;27.27;;;14.50;;
75496;SDS011;64074;47.540;19.072;2024-01-06T12:29:13;22.52;;;13.13;;
75496;SDS011;64074;47.540;19.072;2024-01-06T12:32:34;28.77;;;13.93;;
75496;SDS011;64074;47.540;19.072;2024-01-06T12:35:51;24.92;;;14.27;;
75496;SDS011;64074;47.540;19.072;2024-01-06T12:39:29;27.63;;;14.57;;
75496;SDS011;64074;47.540;19.072;2024-01-06T12:42:43;29.35;;;14.82;;
75496;SDS011;64074;47.540;19.072;2024-01-06T12:46:00;26.40;;;15.60;;
75496;SDS011;64074;47.540;19.072;2024-01-06T12:49:22;30.63;;;15.60;;
75496;SDS011;64074;47.540;19.072;2024-01-06T12:52:35;34.03;;;16.88;;
75496;SDS011;64074;47.540;19.072;2024-01-06T12:55:59;31.83;;;16.42;;
75496;SDS011;64074;47.540;19.072;2024-01-06T12:59:25;29.08;;;14.88;;
75496;SDS011;64074;47.540;19.072;2024-01-06T13:02:39;30.58;;;15.60;;
75496;SDS011;64074;47.540;19.072;2024-01-06T13:06:08;33.00;;;15.90;;
75496;SDS011;64074;47.540;19.072;2024-01-06T13:09:12;30.38;;;15.73;;
75496;SDS011;64074;47.540;19.072;2024-01-06T13:12:20;31.48;;;16.27;;
75496;SDS011;64074;47.540;19.072;2024-01-06T13:15:23;31.48;;;17.10;;
75496;SDS011;64074;47.540;19.072;2024-01-06T13:18:38;33.90;;;17.75;;
75496;SDS011;64074;47.540;19.072;2024-01-06T13:21:54;33.27;;;16.93;;
75496;SDS011;64074;47.540;19.072;2024-01-06T13:25:23;33.40;;;17.45;;
75496;SDS011;64074;47.540;19.072;2024-01-06T13:28:39;35.13;;;18.77;;
75496;SDS011;64074;47.540;19.072;2024-01-06T13:32:00;37.63;;;18.13;;
75496;SDS011;64074;47.540;19.072;2024-01-06T13:35:16;35.17;;;18.33;;
75496;SDS011;64074;47.540;19.072;2024-01-06T13:38:29;32.53;;;18.47;;
75496;SDS011;64074;47.540;19.072;2024-01-06T13:42:05;32.33;;;17.30;;
75496;SDS011;64074;47.540;19.072;2024-01-06T13:45:26;34.50;;;17.83;;
75496;SDS011;64074;47.540;19.072;2024-01-06T13:48:35;35.58;;;18.10;;
75496;SDS011;64074;47.540;19.072;2024-01-06T13:51:47;32.95;;;17.23;;
75496;SDS011;64074;47.540;19.072;2024-01-06T13:55:01;34.17;;;18.70;;
75496;SDS011;64074;47.540;19.072;2024-01-06T13:58:15;36.97;;;19.98;;
75496;SDS011;64074;47.540;19.072;2024-01-06T14:01:26;32.85;;;17.45;;
75496;SDS011;64074;47.540;19.072;2024-01-06T14:04:50;34.63;;;18.70;;
75496;SDS011;64074;47.540;19.072;2024-01-06T14:08:21;36.85;;;17.35;;
75496;SDS011;64074;47.540;19.072;2024-01-06T14:11:47;32.33;;;16.57;;
75496;SDS011;64074;47.540;19.072;2024-01-06T14:15:08;30.60;;;16.42;;
75496;SDS011;64074;47.540;19.072;2024-01-06T14:18:29;37.40;;;17.48;;
75496;SDS011;64074;47.540;19.072;2024-01-06T14:21:51;37.42;;;17.90;;
75496;SDS011;64074;47.540;19.072;2024-01-06T14:25:19;36.33;;;17.92;;
75496;SDS011;64074;47.540;19.072;2024-01-06T14:28:41;34.53;;;19.00;;
75496;SDS011;64074;47.540;19.072;2024-01-06T14:32:01;33.83;;;17.55;;
75496;SDS011;64074;47.540;19.072;2024-01-06T14:35:15;37.55;;;19.20;;
75496;SDS011;64074;47.540;19.072;2024-01-06T14:38:43;35.20;;;18.20;;
75496;SDS011;64074;47.540;19.072;2024-01-06T14:42:07;38.35;;;18.27;;
75496;SDS011;64074;47.540;19.072;2024-01-06T14:45:31;35.97;;;17.57;;
75496;SDS011;64074;47.540;19.072;2024-01-06T14:48:48;34.95;;;18.10;;
75496;SDS011;64074;47.540;19.072;2024-01-06T14:51:59;36.22;;;18.90;;
75496;SDS011;64074;47.540;19.072;2024-01-06T14:55:33;33.65;;;17.10;;
75496;SDS011;64074;47.540;19.072;2024-01-06T14:58:53;32.50;;;17.45;;
75496;SDS011;64074;47.540;19.072;2024-01-06T15:02:16;33.60;;;17.07;;
75496;SDS011;64074;47.540;19.072;2024-01-06T15:05:42;33.92;;;18.27;;
75496;SDS011;64074;47.540;19.072;2024-01-06T15:08:59;35.90;;;20.52;;
75496;SDS011;64074;47.540;19.072;2024-01-06T15:12:16;36.30;;;17.25;;
75496;SDS011;64074;47.540;19.072;2024-01-06T15:15:43;34.20;;;17.60;;
75496;SDS011;64074;47.540;19.072;2024-01-06T15:19:19;37.73;;;19.90;;
75496;SDS011;64074;47.540;19.072;2024-01-06T15:22:35;42.55;;;20.05;;
75496;SDS011;64074;47.540;19.072;2024-01-06T15:25:52;33.97;;;17.15;;
75496;SDS011;64074;47.540;19.072;2024-01-06T15:29:11;32.95;;;17.35;;
75496;SDS011;64074;47.540;19.072;2024-01-06T15:32:24;36.72;;;18.75;;
75496;SDS011;64074;47.540;19.072;2024-01-06T15:35:32;34.97;;;18.33;;
75496;SDS011;64074;47.540;19.072;2024-01-06T15:38:46;37.33;;;18.65;;
75496;SDS011;64074;47.540;19.072;2024-01-06T15:42:00;37.35;;;19.55;;
75496;SDS011;64074;47.540;19.072;2024-01-06T15:45:19;35.67;;;18.90;;
75496;SDS011;64074;47.540;19.072;2024-01-06T15:48:41;34.63;;;18.20;;
75496;SDS011;64074;47.540;19.072;2024-01-06T15:52:03;37.47;;;19.77;;
75496;SDS011;64074;47.540;19.072;2024-01-06T15:55:20;35.50;;;18.95;;
75496;SDS011;64074;47.540;19.072;2024-01-06T15:58:48;33.28;;;18.42;;
75496;SDS011;64074;47.540;19.072;2024-01-06T16:01:58;32.75;;;18.17;;
75496;SDS011;64074;47.540;19.072;2024-01-06T16:05:35;34.90;;;17.65;;
75496;SDS011;64074;47.540;19.072;2024-01-06T16:08:56;33.27;;;17.67;;
75496;SDS011;64074;47.540;19.072;2024-01-06T16:12:15;33.38;;;17.75;;
75496;SDS011;64074;47.540;19.072;2024-01-06T16:15:49;38.10;;;19.58;;
75496;SDS011;64074;47.540;19.072;2024-01-06T16:19:05;40.28;;;18.38;;
75496;SDS011;64074;47.540;19.072;2024-01-06T16:22:28;39.72;;;19.35;;
75496;SDS011;64074;47.540;19.072;2024-01-06T16:25:51;34.77;;;17.83;;
75496;SDS011;64074;47.540;19.072;2024-01-06T16:29:16;37.92;;;18.83;;
75496;SDS011;64074;47.540;19.072;2024-01-06T16:32:30;33.72;;;18.08;;
75496;SDS011;64074;47.540;19.072;2024-01-06T16:35:40;38.38;;;18.23;;
75496;SDS011;64074;47.540;19.072;2024-01-06T16:39:17;37.50;;;18.95;;
75496;SDS011;64074;47.540;19.072;2024-01-06T16:42:43;34.27;;;17.10;;
75496;SDS011;64074;47.540;19.072;2024-01-06T16:46:03;34.13;;;17.15;;
75496;SDS011;64074;47.540;19.072;2024-01-06T16:49:27;34.90;;;18.00;;
75496;SDS011;64074;47.540;19.072;2024-01-06T16:52:53;34.45;;;17.55;;
75496;SDS011;64074;47.540;19.072;2024-01-06T16:56:14;33.55;;;17.77;;
75496;SDS011;64074;47.540;19.072;2024-01-06T16:59:32;37.17;;;19.40;;
75496;SDS011;64074;47.540;19.072;2024-01-06T17:03:00;36.60;;;18.48;;
75496;SDS011;64074;47.540;19.072;2024-01-06T17:06:18;34.30;;;17.80;;
75496;SDS011;64074;47.540;19.072;2024-01-06T17:09:39;33.85;;;17.75;;
75496;SDS011;64074;47.540;19.072;2024-01-06T17:12:56;36.35;;;19.23;;
75496;SDS011;64074;47.540;19.072;2024-01-06T17:16:03;36.00;;;18.70;;
75496;SDS011;64074;47.540;19.072;2024-01-06T17:19:08;40.80;;;18.95;;
75496;SDS011;64074;47.540;19.072;2024-01-06T17:22:17;35.47;;;17.55;;
75496;SDS011;64074;47.540;19.072;2024-01-06T17:25:42;35.17;;;18.15;;
75496;SDS011;64074;47.540;19.072;2024-01-06T17:29:11;37.28;;;17.52;;
75496;SDS011;64074;47.540;19.072;2024-01-06T17:32:21;35.67;;;18.13;;
75496;SDS011;64074;47.540;19.072;2024-01-06T17:35:39;37.03;;;17.90;;
75496;SDS011;64074;47.540;19.072;2024-01-06T17:38:48;35.28;;;18.30;;
75496;SDS011;64074;47.540;19.072;2024-01-06T17:42:06;30.75;;;16.92;;
75496;SDS011;64074;47.540;19.072;2024-01-06T17:45:13;32.97;;;17.60;;
75496;SDS011;64074;47.540;19.072;2024-01-06T17:48:20;36.03;;;17.87;;
75496;SDS011;64074;47.540;19.072;2024-01-06T17:51:27;34.78;;;17.92;;
75496;SDS011;64074;47.540;19.072;2024-01-06T17:54:36;37.67;;;17.75;;
75496;SDS011;64074;47.540;19.072;2024-01-06T17:57:46;35.38;;;18.00;;
75496;SDS011;64074;47.540;19.072;2024-01-06T18:01:06;35.03;;;17.23;;
75496;SDS011;64074;47.540;19.072;2024-01-06T18:04:19;32.73;;;17.10;;
75496;SDS011;64074;47.540;19.072;2024-01-06T18:07:32;30.15;;;16.17;;
75496;SDS011;64074;47.540;19.072;2024-01-06T18:10:54;31.88;;;16.50;;
75496;SDS011;64074;47.540;19.072;2024-01-06T18:14:14;34.33;;;16.92;;
75496;SDS011;64074;47.540;19.072;2024-01-06T18:17:36;37.28;;;17.80;;
75496;SDS011;64074;47.540;19.072;2024-01-06T18:20:59;32.70;;;16.93;;
75496;SDS011;64074;47.540;19.072;2024-01-06T18:24:21;39.42;;;18.95;;
75496;SDS011;64074;47.540;19.072;2024-01-06T18:27:44;33.90;;;17.30;;
75496;SDS011;64074;47.540;19.072;2024-01-06T18:31:02;34.42;;;18.13;;
75496;SDS011;64074;47.540;19.072;2024-01-06T18:51:28;36.33;;;17.50;;
75496;SDS011;64074;47.540;19.072;2024-01-06T18:54:44;34.35;;;17.42;;
75496;SDS011;64074;47.540;19.072;2024-01-06T18:57:58;32.13;;;17.73;;
75496;SDS011;64074;47.540;19.072;2024-01-06T19:01:20;32.55;;;16.85;;
75496;SDS011;64074;47.540;19.072;2024-01-06T19:04:46;30.77;;;16.55;;
75496;SDS011;64074;47.540;19.072;2024-01-06T19:08:04;30.98;;;16.40;;
75496;SDS011;64074;47.540;19.072;2024-01-06T19:11:25;29.83;;;16.15;;
75496;SDS011;64074;47.540;19.072;2024-01-06T19:14:52;30.40;;;16.37;;
75496;SDS011;64074;47.540;19.072;2024-01-06T19:18:13;30.98;;;17.10;;
75496;SDS011;64074;47.540;19.072;2024-01-06T19:21:38;31.92;;;17.42;;
75496;SDS011;64074;47.540;19.072;2024-01-06T19:24:55;31.35;;;17.20;;
75496;SDS011;64074;47.540;19.072;2024-01-06T19:28:16;32.20;;;16.67;;
75496;SDS011;64074;47.540;19.072;2024-01-06T19:31:37;30.23;;;15.83;;